createdAt,value
2022-11-17T00:00:40.092Z,1.91
2022-11-17T00:02:11.427Z,1.96
2022-11-17T00:03:43.025Z,2.13
2022-11-17T00:05:14.351Z,1.83
2022-11-17T00:06:45.852Z,1.86
2022-11-17T00:08:17.334Z,2.11
2022-11-17T00:09:49.198Z,1.97
2022-11-17T00:11:20.727Z,1.85
2022-11-17T00:12:52.193Z,2.00
2022-11-17T00:14:23.525Z,2.09
2022-11-17T00:16:00.219Z,1.97
2022-11-17T00:17:36.635Z,2.09
2022-11-17T00:19:08.065Z,2.10
2022-11-17T00:20:39.604Z,2.22
2022-11-17T00:22:10.842Z,2.20
2022-11-17T00:23:42.238Z,2.22
2022-11-17T00:25:13.550Z,2.53
2022-11-17T00:26:44.836Z,2.86
2022-11-17T00:28:16.173Z,2.37
2022-11-17T00:29:47.700Z,2.37
2022-11-17T00:31:19.071Z,2.32
2022-11-17T00:32:50.409Z,2.33
2022-11-17T00:34:21.845Z,2.47
2022-11-17T00:35:53.364Z,2.43
2022-11-17T00:37:24.818Z,2.57
2022-11-17T00:38:56.277Z,2.70
2022-11-17T00:40:27.893Z,2.73
2022-11-17T00:41:59.542Z,2.37
2022-11-17T00:43:30.896Z,2.62
2022-11-17T00:45:02.443Z,2.97
2022-11-17T00:46:33.843Z,2.89
2022-11-17T00:48:05.624Z,2.88
2022-11-17T00:49:37.177Z,2.59
2022-11-17T00:51:08.790Z,2.53
2022-11-17T00:52:40.456Z,2.50
2022-11-17T00:54:11.867Z,2.34
2022-11-17T00:55:43.286Z,2.57
2022-11-17T00:57:14.776Z,2.70
2022-11-17T00:58:46.272Z,2.42
2022-11-17T01:00:18.091Z,2.62
2022-11-17T01:01:49.518Z,2.68
2022-11-17T01:03:21.187Z,3.00
2022-11-17T01:04:52.803Z,3.09
2022-11-17T01:06:24.731Z,2.95
2022-11-17T01:07:57.061Z,2.35
2022-11-17T01:09:28.574Z,2.37
2022-11-17T01:10:59.907Z,2.18
2022-11-17T01:12:31.526Z,2.16
2022-11-17T01:14:02.848Z,2.09
2022-11-17T01:15:34.110Z,2.04
2022-11-17T01:17:05.412Z,2.12
2022-11-17T01:18:36.960Z,2.31
2022-11-17T01:20:08.251Z,2.05
2022-11-17T01:21:40.007Z,2.00
2022-11-17T01:23:11.409Z,1.76
2022-11-17T01:24:42.974Z,1.67
2022-11-17T01:26:14.357Z,1.74
2022-11-17T01:27:45.861Z,1.77
2022-11-17T01:29:18.245Z,1.86
2022-11-17T01:30:49.794Z,1.98
2022-11-17T01:32:21.149Z,1.88
2022-11-17T01:33:52.522Z,1.85
2022-11-17T01:35:23.794Z,1.96
2022-11-17T01:36:55.153Z,1.94
2022-11-17T01:38:26.552Z,1.73
2022-11-17T01:39:57.915Z,1.94
2022-11-17T01:41:29.235Z,1.77
2022-11-17T01:43:00.734Z,2.02
2022-11-17T01:44:32.889Z,1.89
2022-11-17T01:46:04.473Z,1.80
2022-11-17T01:47:35.838Z,1.80
2022-11-17T01:49:07.775Z,1.91
2022-11-17T01:50:39.315Z,2.56
2022-11-17T01:52:10.625Z,2.05
2022-11-17T01:53:47.072Z,1.87
2022-11-17T01:55:18.792Z,2.05
2022-11-17T01:56:50.233Z,2.07
2022-11-17T01:58:26.619Z,2.00
2022-11-17T01:59:58.001Z,1.92
2022-11-17T02:01:29.814Z,1.86
2022-11-17T02:03:02.083Z,1.90
2022-11-17T02:04:33.769Z,1.84
2022-11-17T02:06:05.201Z,1.90
2022-11-17T02:07:36.746Z,1.80
2022-11-17T02:09:08.298Z,1.88
2022-11-17T02:10:40.519Z,1.69
2022-11-17T02:12:12.505Z,1.65
2022-11-17T02:13:43.937Z,1.88
2022-11-17T02:15:15.358Z,1.71
2022-11-17T02:16:46.690Z,1.80
2022-11-17T02:18:18.241Z,1.97
2022-11-17T02:19:49.732Z,2.07
2022-11-17T02:21:21.105Z,1.79
2022-11-17T02:22:52.708Z,1.81
2022-11-17T02:24:24.350Z,1.76
2022-11-17T02:25:55.699Z,1.86
2022-11-17T02:27:27.221Z,1.72
2022-11-17T02:28:58.624Z,1.71
2022-11-17T02:30:30.170Z,1.65
2022-11-17T02:32:01.569Z,1.64
2022-11-17T02:33:33.321Z,1.98
2022-11-17T02:35:05.039Z,1.76
2022-11-17T02:36:36.377Z,1.65
2022-11-17T02:38:08.103Z,1.70
2022-11-17T02:39:39.550Z,1.81
2022-11-17T02:41:15.881Z,1.84
2022-11-17T02:42:47.237Z,1.48
2022-11-17T02:44:18.491Z,1.72
2022-11-17T02:45:49.915Z,1.62
2022-11-17T02:47:21.248Z,1.62
2022-11-17T02:48:53.937Z,1.64
2022-11-17T02:50:28.204Z,1.60
2022-11-17T02:52:00.037Z,1.50
2022-11-17T02:53:31.634Z,1.64
2022-11-17T02:55:03.194Z,1.56
2022-11-17T02:56:34.812Z,1.59
2022-11-17T02:58:06.195Z,1.52
2022-11-17T02:59:37.549Z,1.66
2022-11-17T03:01:09.287Z,1.60
2022-11-17T03:02:40.619Z,1.35
2022-11-17T03:04:12.247Z,1.30
2022-11-17T03:05:43.727Z,1.56
2022-11-17T03:07:15.267Z,1.48
2022-11-17T03:08:46.653Z,1.47
2022-11-17T03:10:18.056Z,1.44
2022-11-17T03:11:49.431Z,1.46
2022-11-17T03:13:20.719Z,1.42
2022-11-17T03:14:52.156Z,1.47
2022-11-17T03:16:23.626Z,1.44
2022-11-17T03:17:55.026Z,1.31
2022-11-17T03:19:26.542Z,1.33
2022-11-17T03:20:57.859Z,1.36
2022-11-17T03:22:29.213Z,1.30
2022-11-17T03:24:00.740Z,1.26
2022-11-17T03:25:32.056Z,1.34
2022-11-17T03:27:03.321Z,1.32
2022-11-17T03:28:34.716Z,1.28
2022-11-17T03:30:05.983Z,1.09
2022-11-17T03:31:37.371Z,1.21
2022-11-17T03:33:08.727Z,1.28
2022-11-17T03:34:40.093Z,1.26
2022-11-17T03:36:11.385Z,1.30
2022-11-17T03:37:42.701Z,1.16
2022-11-17T03:39:14.190Z,1.15
2022-11-17T03:40:45.610Z,1.23
2022-11-17T03:42:17.060Z,1.17
2022-11-17T03:43:48.426Z,1.30
2022-11-17T03:45:19.718Z,1.13
2022-11-17T03:46:51.237Z,0.98
2022-11-17T03:48:22.527Z,1.10
2022-11-17T03:49:53.858Z,1.05
2022-11-17T03:51:25.400Z,1.20
2022-11-17T03:52:56.828Z,1.00
2022-11-17T03:54:28.444Z,0.96
2022-11-17T03:55:59.742Z,0.90
2022-11-17T03:57:31.151Z,0.83
2022-11-17T03:59:02.451Z,0.90
2022-11-17T04:00:33.884Z,0.91
2022-11-17T04:02:05.254Z,0.87
2022-11-17T04:03:36.907Z,1.01
2022-11-17T04:05:08.410Z,0.92
2022-11-17T04:06:40.010Z,0.93
2022-11-17T04:08:11.248Z,1.08
2022-11-17T04:09:42.660Z,1.12
2022-11-17T04:11:13.959Z,0.91
2022-11-17T04:12:45.198Z,0.91
2022-11-17T04:14:16.540Z,0.97
2022-11-17T04:15:48.225Z,0.90
2022-11-17T04:17:19.560Z,0.86
2022-11-17T04:18:54.457Z,0.90
2022-11-17T04:20:29.016Z,1.06
2022-11-17T04:22:05.407Z,0.93
2022-11-17T04:23:37.084Z,0.94
2022-11-17T04:25:08.729Z,0.90
2022-11-17T04:26:45.062Z,0.89
2022-11-17T04:28:16.396Z,0.88
2022-11-17T04:29:47.731Z,0.99
2022-11-17T04:31:19.420Z,0.99
2022-11-17T04:32:50.746Z,0.97
2022-11-17T04:34:27.189Z,1.04
2022-11-17T04:35:58.772Z,0.93
2022-11-17T04:37:30.283Z,0.87
2022-11-17T04:39:01.773Z,0.91
2022-11-17T04:40:33.103Z,1.00
2022-11-17T04:42:04.566Z,0.94
2022-11-17T04:43:36.261Z,1.03
2022-11-17T04:45:07.769Z,0.90
2022-11-17T04:46:40.237Z,0.92
2022-11-17T04:48:11.632Z,0.94
2022-11-17T04:49:44.136Z,0.95
2022-11-17T04:51:15.419Z,1.05
2022-11-17T04:52:46.754Z,1.01
2022-11-17T04:54:18.043Z,1.04
2022-11-17T04:55:49.468Z,1.06
2022-11-17T04:57:20.882Z,1.14
2022-11-17T04:58:52.206Z,1.03
2022-11-17T05:00:23.580Z,1.12
2022-11-17T05:01:55.100Z,1.04
2022-11-17T05:03:26.583Z,0.95
2022-11-17T05:04:58.121Z,1.01
2022-11-17T05:06:29.517Z,1.03
2022-11-17T05:08:00.875Z,1.11
2022-11-17T05:09:32.117Z,1.21
2022-11-17T05:11:03.819Z,1.07
2022-11-17T05:12:35.116Z,1.26
2022-11-17T05:14:06.427Z,1.00
2022-11-17T05:15:37.826Z,1.35
2022-11-17T05:17:11.516Z,1.12
2022-11-17T05:18:43.458Z,1.16
2022-11-17T05:20:15.061Z,1.00
2022-11-17T05:21:46.361Z,1.02
2022-11-17T05:23:18.259Z,1.20
2022-11-17T05:24:49.664Z,1.13
2022-11-17T05:26:21.005Z,1.08
2022-11-17T05:27:52.300Z,1.03
2022-11-17T05:29:23.546Z,1.18
2022-11-17T05:30:54.801Z,1.24
2022-11-17T05:32:26.169Z,1.06
2022-11-17T05:33:57.691Z,1.36
2022-11-17T05:35:29.178Z,1.30
2022-11-17T05:37:00.580Z,1.30
2022-11-17T05:38:32.010Z,1.28
2022-11-17T05:40:03.298Z,1.28
2022-11-17T05:41:34.620Z,1.28
2022-11-17T05:43:06.181Z,1.26
2022-11-17T05:44:37.631Z,1.50
2022-11-17T05:46:09.249Z,1.37
2022-11-17T05:47:40.560Z,1.33
2022-11-17T05:49:11.829Z,1.24
2022-11-17T05:50:43.432Z,1.41
2022-11-17T05:52:14.728Z,1.38
2022-11-17T05:53:45.944Z,1.39
2022-11-17T05:55:17.371Z,1.25
2022-11-17T05:56:49.165Z,1.43
2022-11-17T05:58:20.550Z,1.31
2022-11-17T05:59:56.980Z,1.28
2022-11-17T06:01:28.367Z,1.46
2022-11-17T06:02:59.687Z,1.31
2022-11-17T06:04:31.158Z,1.55
2022-11-17T06:06:03.037Z,1.28
2022-11-17T06:07:34.607Z,1.49
2022-11-17T06:09:06.445Z,1.44
2022-11-17T06:11:06.273Z,1.50
2022-11-17T06:12:37.601Z,1.46
2022-11-17T06:14:10.009Z,1.37
2022-11-17T06:15:41.373Z,1.58
2022-11-17T06:17:13.428Z,1.73
2022-11-17T06:18:46.754Z,1.56
2022-11-17T06:20:18.364Z,1.64
2022-11-17T06:23:33.596Z,1.43
2022-11-17T06:25:05.260Z,1.44
2022-11-17T06:26:46.727Z,1.39
2022-11-17T06:28:18.203Z,1.73
2022-11-17T06:29:49.600Z,1.49
2022-11-17T06:31:26.517Z,1.57
2022-11-17T06:32:57.940Z,1.65
2022-11-17T06:34:29.241Z,1.52
2022-11-17T06:36:00.818Z,1.73
2022-11-17T06:37:32.482Z,1.62
2022-11-17T06:39:03.859Z,1.64
2022-11-17T06:40:36.516Z,1.76
2022-11-17T06:42:08.944Z,1.80
2022-11-17T06:43:40.332Z,1.70
2022-11-17T06:45:11.745Z,1.81
2022-11-17T06:46:47.602Z,1.86
2022-11-17T06:48:21.215Z,1.82
2022-11-17T06:49:52.660Z,1.86
2022-11-17T06:51:24.178Z,2.08
2022-11-17T06:52:55.877Z,1.88
2022-11-17T06:54:27.870Z,2.00
2022-11-17T06:55:59.512Z,1.87
2022-11-17T06:57:30.818Z,1.89
2022-11-17T06:59:02.201Z,2.27
2022-11-17T07:00:33.679Z,2.21
2022-11-17T07:02:05.203Z,2.11
2022-11-17T07:03:37.045Z,2.22
2022-11-17T07:05:08.860Z,2.05
2022-11-17T07:06:40.658Z,2.07
2022-11-17T07:08:11.971Z,1.97
2022-11-17T07:09:43.258Z,1.84
2022-11-17T07:11:14.744Z,2.05
2022-11-17T07:12:46.263Z,2.01
2022-11-17T07:14:17.617Z,1.84
2022-11-17T07:15:49.003Z,1.92
2022-11-17T07:17:20.493Z,1.82
2022-11-17T07:18:51.885Z,1.71
2022-11-17T07:20:23.365Z,2.52
2022-11-17T07:21:54.936Z,1.55
2022-11-17T07:23:26.311Z,1.74
2022-11-17T07:24:57.690Z,1.74
2022-11-17T07:26:29.032Z,1.50
2022-11-17T07:28:01.158Z,1.71
2022-11-17T07:29:32.695Z,2.27
2022-11-17T07:31:04.497Z,2.47
2022-11-17T07:32:36.011Z,2.24
2022-11-17T07:34:07.513Z,2.43
2022-11-17T07:35:43.957Z,2.05
2022-11-17T07:37:15.380Z,2.31
2022-11-17T07:38:46.765Z,1.64
2022-11-17T07:40:18.123Z,1.61
2022-11-17T07:41:49.607Z,1.37
2022-11-17T07:43:21.021Z,1.51
2022-11-17T07:44:52.767Z,1.41
2022-11-17T07:46:24.151Z,1.40
2022-11-17T07:47:55.574Z,1.38
2022-11-17T07:49:27.036Z,1.23
2022-11-17T07:50:58.485Z,1.53
2022-11-17T07:52:29.936Z,1.40
2022-11-17T07:54:01.219Z,1.47
2022-11-17T07:55:32.523Z,1.52
2022-11-17T07:57:03.990Z,1.51
2022-11-17T07:58:35.665Z,1.42
2022-11-17T08:00:13.999Z,1.42
2022-11-17T08:01:45.557Z,1.54
2022-11-17T08:03:16.920Z,1.67
2022-11-17T08:04:48.368Z,1.52
2022-11-17T08:06:19.773Z,1.62
2022-11-17T08:07:51.067Z,1.70
2022-11-17T08:09:22.449Z,1.48
2022-11-17T08:10:54.056Z,1.58
2022-11-17T08:12:25.340Z,1.51
2022-11-17T08:13:56.659Z,1.65
2022-11-17T08:15:28.092Z,1.39
2022-11-17T08:17:00.851Z,1.22
2022-11-17T08:18:32.446Z,1.33
2022-11-17T08:20:03.904Z,1.50
2022-11-17T08:21:35.279Z,1.24
2022-11-17T08:23:11.577Z,1.06
2022-11-17T08:24:42.896Z,1.19
2022-11-17T08:26:14.493Z,1.17
2022-11-17T08:27:46.270Z,1.11
2022-11-17T08:29:17.657Z,0.94
2022-11-17T08:30:49.028Z,1.17
2022-11-17T08:32:20.726Z,1.63
2022-11-17T08:33:52.075Z,1.47
2022-11-17T08:35:31.769Z,1.11
2022-11-17T08:37:05.746Z,1.00
2022-11-17T08:38:37.355Z,0.86
2022-11-17T08:40:09.087Z,0.79
2022-11-17T08:41:40.420Z,0.84
2022-11-17T08:43:11.937Z,1.01
2022-11-17T08:44:43.371Z,0.96
2022-11-17T08:46:14.765Z,0.97
2022-11-17T08:47:46.105Z,0.92
2022-11-17T08:49:17.588Z,1.04
2022-11-17T08:50:48.902Z,0.98
2022-11-17T08:52:21.706Z,0.85
2022-11-17T08:53:53.093Z,1.00
2022-11-17T08:55:24.891Z,1.13
2022-11-17T08:56:56.419Z,3.05
2022-11-17T08:58:27.681Z,2.05
2022-11-17T08:59:59.406Z,1.04
2022-11-17T09:01:30.794Z,1.07
2022-11-17T09:03:02.117Z,1.30
2022-11-17T09:04:33.743Z,1.11
2022-11-17T09:06:05.386Z,0.89
2022-11-17T09:07:38.180Z,1.01
2022-11-17T09:09:09.475Z,0.96
2022-11-17T09:10:40.905Z,0.96
2022-11-17T09:12:12.375Z,1.14
2022-11-17T09:13:43.722Z,0.99
2022-11-17T09:15:15.102Z,1.27
2022-11-17T09:16:46.522Z,1.07
2022-11-17T09:18:18.026Z,1.08
2022-11-17T09:19:49.436Z,1.10
2022-11-17T09:21:20.847Z,1.42
2022-11-17T09:22:52.251Z,1.10
2022-11-17T09:24:23.625Z,1.07
2022-11-17T09:25:54.939Z,1.12
2022-11-17T09:27:26.467Z,1.15
2022-11-17T09:28:57.753Z,1.11
2022-11-17T09:30:29.164Z,1.40
2022-11-17T09:32:00.595Z,1.24
2022-11-17T09:33:31.886Z,2.15
2022-11-17T09:35:03.224Z,1.64
2022-11-17T09:36:34.517Z,1.63
2022-11-17T09:38:06.199Z,1.39
2022-11-17T09:39:37.610Z,1.29
2022-11-17T09:41:09.214Z,1.29
2022-11-17T09:42:40.547Z,1.23
2022-11-17T09:44:11.974Z,1.17
2022-11-17T09:45:43.278Z,1.28
2022-11-17T09:47:14.619Z,1.20
2022-11-17T09:48:46.156Z,1.25
2022-11-17T09:50:22.524Z,1.07
2022-11-17T09:51:53.966Z,1.18
2022-11-17T09:53:26.570Z,1.39
2022-11-17T09:54:58.108Z,1.27
2022-11-17T09:56:29.397Z,1.88
2022-11-17T09:58:00.840Z,1.13
2022-11-17T09:59:32.143Z,1.20
2022-11-17T10:01:03.439Z,1.26
2022-11-17T10:02:34.771Z,1.33
2022-11-17T10:04:06.120Z,1.17
2022-11-17T10:05:37.576Z,1.29
2022-11-17T10:07:08.859Z,1.13
2022-11-17T10:08:40.258Z,1.03
2022-11-17T10:10:11.533Z,1.26
2022-11-17T10:11:43.183Z,1.09
2022-11-17T10:13:14.477Z,1.15
2022-11-17T10:14:45.884Z,1.17
2022-11-17T10:16:17.223Z,1.08
2022-11-17T10:17:48.561Z,1.10
2022-11-17T10:19:19.948Z,1.29
2022-11-17T10:20:51.295Z,0.95
2022-11-17T10:22:22.681Z,0.89
2022-11-17T10:23:54.031Z,1.03
2022-11-17T10:25:25.344Z,1.10
2022-11-17T10:26:56.756Z,1.12
2022-11-17T10:28:28.268Z,1.17
2022-11-17T10:29:59.633Z,0.91
2022-11-17T10:31:31.106Z,1.10
2022-11-17T10:33:02.388Z,1.14
2022-11-17T10:34:40.314Z,0.94
2022-11-17T10:36:12.524Z,1.18
2022-11-17T10:37:43.860Z,0.97
2022-11-17T10:39:17.881Z,1.16
2022-11-17T10:40:49.236Z,0.86
2022-11-17T10:42:20.607Z,0.91
2022-11-17T10:43:51.904Z,0.81
2022-11-17T10:45:23.227Z,1.03
2022-11-17T10:46:57.639Z,0.90
2022-11-17T10:48:33.349Z,0.76
2022-11-17T10:50:04.822Z,0.80
2022-11-17T10:51:36.323Z,0.80
2022-11-17T10:53:11.565Z,0.88
2022-11-17T10:54:44.107Z,0.83
2022-11-17T10:56:15.789Z,1.02
2022-11-17T10:57:54.122Z,0.72
2022-11-17T10:59:53.599Z,0.80
2022-11-17T11:01:37.106Z,0.89
2022-11-17T11:03:08.702Z,0.80
2022-11-17T11:04:40.164Z,0.86
2022-11-17T11:06:17.269Z,0.81
2022-11-17T11:07:48.846Z,0.79
2022-11-17T11:09:20.185Z,0.83
2022-11-17T11:10:51.588Z,0.88
2022-11-17T11:12:22.928Z,0.94
2022-11-17T11:13:54.552Z,0.95
2022-11-17T11:15:26.906Z,0.93
2022-11-17T11:16:58.582Z,0.89
2022-11-17T11:18:29.992Z,1.00
2022-11-17T11:20:01.525Z,0.86
2022-11-17T11:21:32.831Z,1.75
2022-11-17T11:23:04.116Z,3.20
2022-11-17T11:24:35.371Z,1.18
2022-11-17T11:26:06.778Z,1.20
2022-11-17T11:27:38.067Z,1.14
2022-11-17T11:29:09.932Z,1.16
2022-11-17T11:30:41.628Z,1.11
2022-11-17T11:32:12.979Z,0.87
2022-11-17T11:33:44.358Z,1.11
2022-11-17T11:35:17.505Z,1.16
2022-11-17T11:36:56.243Z,1.15
2022-11-17T11:38:27.554Z,0.97
2022-11-17T11:39:59.007Z,1.06
2022-11-17T11:41:30.558Z,0.94
2022-11-17T11:43:01.956Z,0.85
2022-11-17T11:44:33.241Z,1.02
2022-11-17T11:46:09.721Z,0.97
2022-11-17T11:47:46.110Z,0.90
2022-11-17T11:49:22.467Z,0.92
2022-11-17T11:50:53.819Z,1.18
2022-11-17T11:52:30.186Z,0.87
2022-11-17T11:54:01.470Z,1.01
2022-11-17T11:55:32.753Z,0.90
2022-11-17T11:57:04.329Z,0.95
2022-11-17T11:58:35.716Z,0.95
2022-11-17T12:00:07.158Z,1.01
2022-11-17T12:01:38.531Z,0.92
2022-11-17T12:03:10.045Z,0.97
2022-11-17T12:04:41.562Z,0.97
2022-11-17T12:06:12.867Z,0.89
2022-11-17T12:07:44.242Z,0.94
2022-11-17T12:09:15.646Z,0.87
2022-11-17T12:10:47.049Z,0.93
2022-11-17T12:12:18.546Z,1.08
2022-11-17T12:13:53.880Z,1.00
2022-11-17T12:15:30.724Z,0.92
2022-11-17T12:17:02.065Z,0.84
2022-11-17T12:18:33.635Z,1.03
2022-11-17T12:20:10.654Z,1.04
2022-11-17T12:21:42.355Z,0.83
2022-11-17T12:23:18.844Z,0.70
2022-11-17T12:24:55.303Z,0.78
2022-11-17T12:26:26.907Z,0.89
2022-11-17T12:27:58.368Z,0.69
2022-11-17T12:29:29.745Z,0.93
2022-11-17T12:31:06.733Z,0.74
2022-11-17T12:32:41.208Z,0.88
2022-11-17T12:34:12.795Z,0.90
2022-11-17T12:35:44.382Z,0.82
2022-11-17T12:37:15.735Z,0.83
2022-11-17T12:38:47.156Z,0.92
2022-11-17T12:40:18.446Z,1.01
2022-11-17T12:41:50.044Z,0.99
2022-11-17T12:43:21.496Z,0.95
2022-11-17T12:44:52.851Z,0.77
2022-11-17T12:46:24.429Z,1.00
2022-11-17T12:48:18.845Z,1.04
2022-11-17T12:50:03.985Z,1.06
2022-11-17T12:51:35.632Z,1.07
2022-11-17T12:53:06.979Z,0.91
2022-11-17T12:54:38.374Z,0.88
2022-11-17T12:56:09.689Z,0.93
2022-11-17T12:57:41.104Z,0.91
2022-11-17T12:59:12.546Z,0.87
2022-11-17T13:00:44.076Z,0.85
2022-11-17T13:02:15.460Z,0.95
2022-11-17T13:03:46.884Z,0.75
2022-11-17T13:05:18.182Z,0.85
2022-11-17T13:06:49.581Z,0.80
2022-11-17T13:08:20.937Z,0.92
2022-11-17T13:09:59.168Z,0.72
2022-11-17T13:11:30.637Z,0.79
2022-11-17T13:13:02.142Z,0.92
2022-11-17T13:14:33.492Z,0.99
2022-11-17T13:16:04.815Z,0.88
2022-11-17T13:17:36.210Z,0.83
2022-11-17T13:19:07.562Z,0.90
2022-11-17T13:20:39.164Z,0.77
2022-11-17T13:22:10.507Z,0.95
2022-11-17T13:23:41.830Z,0.96
2022-11-17T13:25:13.260Z,0.85
2022-11-17T13:26:44.894Z,0.91
2022-11-17T13:28:16.217Z,0.96
2022-11-17T13:29:47.697Z,0.94
2022-11-17T13:31:19.152Z,0.92
2022-11-17T13:32:50.782Z,1.44
2022-11-17T13:34:22.196Z,1.88
2022-11-17T13:35:53.679Z,1.07
2022-11-17T13:37:25.125Z,1.12
2022-11-17T13:38:56.499Z,1.17
2022-11-17T13:40:27.956Z,1.04
2022-11-17T13:41:59.559Z,0.90
2022-11-17T13:43:31.061Z,0.83
2022-11-17T13:45:02.462Z,0.82
2022-11-17T13:46:33.820Z,0.96
2022-11-17T13:48:05.068Z,0.88
2022-11-17T13:49:36.363Z,1.00
2022-11-17T13:51:08.198Z,1.00
2022-11-17T13:52:45.386Z,1.36
2022-11-17T13:54:18.246Z,1.19
2022-11-17T13:55:49.700Z,1.05
2022-11-17T13:57:21.205Z,1.22
2022-11-17T13:58:52.586Z,1.15
2022-11-17T14:00:24.153Z,1.24
2022-11-17T14:01:55.873Z,1.14
2022-11-17T14:03:27.496Z,1.06
2022-11-17T14:04:58.903Z,1.15
2022-11-17T14:06:30.243Z,1.15
2022-11-17T14:08:01.694Z,1.02
2022-11-17T14:09:32.987Z,1.17
2022-11-17T14:11:04.382Z,1.18
2022-11-17T14:12:35.732Z,1.09
2022-11-17T14:14:12.830Z,1.04
2022-11-17T14:15:46.757Z,1.09
2022-11-17T14:17:20.658Z,0.99
2022-11-17T14:18:52.114Z,0.99
2022-11-17T14:20:23.532Z,1.17
2022-11-17T14:21:55.014Z,1.24
2022-11-17T14:23:26.307Z,1.21
2022-11-17T14:24:57.670Z,1.14
2022-11-17T14:26:29.041Z,1.13
2022-11-17T14:28:00.614Z,1.17
2022-11-17T14:29:32.173Z,1.30
2022-11-17T14:31:03.614Z,1.20
2022-11-17T14:32:34.922Z,1.31
2022-11-17T14:34:06.565Z,1.44
2022-11-17T14:35:38.145Z,1.29
2022-11-17T14:37:10.556Z,1.38
2022-11-17T14:38:43.067Z,1.40
2022-11-17T14:40:14.574Z,1.20
2022-11-17T14:41:46.198Z,1.45
2022-11-17T14:43:17.571Z,1.24
2022-11-17T14:44:49.074Z,1.34
2022-11-17T14:46:20.409Z,1.23
2022-11-17T14:47:51.785Z,1.23
2022-11-17T14:49:23.144Z,1.23
2022-11-17T14:50:54.535Z,0.99
2022-11-17T14:52:26.287Z,1.07
2022-11-17T14:53:57.695Z,1.07
2022-11-17T14:55:29.055Z,1.08
2022-11-17T14:57:00.507Z,1.19
2022-11-17T14:58:31.847Z,1.00
2022-11-17T15:00:03.326Z,1.14
2022-11-17T15:01:34.891Z,1.04
2022-11-17T15:03:06.353Z,1.13
2022-11-17T15:04:49.958Z,1.00
2022-11-17T15:06:22.498Z,1.02
2022-11-17T15:07:53.951Z,1.06
2022-11-17T15:09:26.686Z,1.04
2022-11-17T15:10:57.984Z,1.29
2022-11-17T15:12:29.359Z,1.35
2022-11-17T15:14:00.615Z,1.19
2022-11-17T15:15:31.895Z,1.22
2022-11-17T15:17:03.253Z,1.57
2022-11-17T15:18:34.764Z,1.36
2022-11-17T15:20:06.467Z,1.79
2022-11-17T15:21:37.913Z,3.53
2022-11-17T15:23:09.250Z,1.36
2022-11-17T15:24:41.176Z,1.08
2022-11-17T15:26:12.447Z,1.15
2022-11-17T15:27:43.774Z,1.14
2022-11-17T15:29:15.561Z,2.20
2022-11-17T15:30:47.211Z,4.22
2022-11-17T15:32:18.724Z,1.84
2022-11-17T15:33:50.073Z,1.49
2022-11-17T15:35:21.436Z,1.74
2022-11-17T15:36:52.841Z,2.29
2022-11-17T15:38:25.200Z,1.99
2022-11-17T15:39:56.586Z,1.98
2022-11-17T15:41:32.581Z,1.67
2022-11-17T15:43:04.378Z,1.50
2022-11-17T15:44:45.753Z,1.42
2022-11-17T15:46:18.215Z,1.47
2022-11-17T15:47:49.600Z,1.54
2022-11-17T15:49:21.021Z,1.45
2022-11-17T15:50:52.388Z,1.48
2022-11-17T15:52:41.712Z,1.34
2022-11-17T15:54:28.362Z,1.60
2022-11-17T15:56:00.010Z,1.55
2022-11-17T15:57:41.678Z,1.64
2022-11-17T15:59:13.497Z,1.41
2022-11-17T16:00:45.601Z,1.46
2022-11-17T16:02:16.895Z,1.39
2022-11-17T16:03:48.251Z,1.53
2022-11-17T16:05:19.706Z,1.80
2022-11-17T16:06:56.113Z,1.75
2022-11-17T16:08:50.385Z,1.68
2022-11-17T16:10:22.028Z,1.44
2022-11-17T16:11:53.495Z,1.25
2022-11-17T16:13:34.866Z,1.34
2022-11-17T16:15:29.641Z,1.20
2022-11-17T16:17:11.023Z,1.23
2022-11-17T16:18:42.537Z,1.30
2022-11-17T16:20:14.247Z,1.34
2022-11-17T16:21:45.597Z,1.34
2022-11-17T16:23:16.965Z,1.37
2022-11-17T16:24:48.724Z,1.34
2022-11-17T16:26:21.154Z,3.36
2022-11-17T16:27:52.556Z,7.79
2022-11-17T16:29:23.983Z,3.69
2022-11-17T16:30:55.325Z,4.45
2022-11-17T16:32:26.664Z,5.04
2022-11-17T16:34:35.375Z,4.29
2022-11-17T16:36:06.997Z,1.59
2022-11-17T16:37:38.436Z,1.40
2022-11-17T16:40:36.288Z,1.00
2022-11-17T16:42:07.540Z,1.47
2022-11-17T16:43:44.351Z,2.56
2022-11-17T16:45:21.174Z,2.41
2022-11-17T16:46:52.785Z,2.60
2022-11-17T16:48:24.115Z,2.65
2022-11-17T16:49:55.563Z,2.30
2022-11-17T16:51:26.835Z,2.18
2022-11-17T16:52:58.173Z,2.25
2022-11-17T16:54:29.605Z,2.17
2022-11-17T16:56:01.165Z,1.95
2022-11-17T16:57:33.913Z,2.00
2022-11-17T16:59:05.347Z,1.86
2022-11-17T17:00:37.759Z,1.90
2022-11-17T17:02:09.037Z,1.89
2022-11-17T17:03:40.329Z,1.99
2022-11-17T17:05:11.747Z,2.46
2022-11-17T17:06:43.203Z,1.94
2022-11-17T17:08:14.660Z,1.78
2022-11-17T17:09:46.083Z,1.95
2022-11-17T17:11:17.355Z,1.87
2022-11-17T17:12:48.777Z,1.79
2022-11-17T17:14:20.097Z,1.78
2022-11-17T17:16:01.365Z,1.67
2022-11-17T17:17:32.854Z,1.74
2022-11-17T17:19:04.215Z,1.60
2022-11-17T17:20:35.479Z,1.82
2022-11-17T17:22:11.794Z,2.17
2022-11-17T17:23:43.479Z,2.25
2022-11-17T17:25:14.814Z,2.27
2022-11-17T17:26:46.272Z,2.18
2022-11-17T17:28:17.579Z,2.13
2022-11-17T17:29:48.913Z,2.38
2022-11-17T17:31:21.991Z,2.51
2022-11-17T17:32:53.569Z,2.34
2022-11-17T17:34:24.986Z,2.30
2022-11-17T17:35:56.421Z,2.18
2022-11-17T17:37:27.844Z,2.00
2022-11-17T17:39:00.312Z,2.18
2022-11-17T17:40:31.627Z,2.01
2022-11-17T17:42:02.908Z,1.93
2022-11-17T17:43:34.289Z,1.89
2022-11-17T17:45:06.157Z,1.74
2022-11-17T17:46:49.164Z,1.72
2022-11-17T17:48:20.590Z,1.88
2022-11-17T17:49:51.934Z,1.83
2022-11-17T17:51:23.393Z,1.85
2022-11-17T17:52:54.971Z,2.04
2022-11-17T17:54:26.251Z,1.83
2022-11-17T17:55:57.871Z,1.67
2022-11-17T17:57:39.208Z,2.42
2022-11-17T17:59:10.976Z,1.90
2022-11-17T18:00:52.355Z,1.63
2022-11-17T18:02:28.781Z,1.55
2022-11-17T18:04:00.125Z,1.98
2022-11-17T18:05:31.421Z,2.02
2022-11-17T18:07:02.884Z,2.33
2022-11-17T18:08:34.208Z,2.24
2022-11-17T18:10:05.928Z,2.10
2022-11-17T18:11:37.493Z,2.65
2022-11-17T18:13:10.786Z,2.40
2022-11-17T18:14:42.479Z,2.16
2022-11-17T18:16:14.082Z,2.54
2022-11-17T18:17:45.614Z,2.46
2022-11-17T18:19:22.062Z,2.35
2022-11-17T18:20:53.528Z,2.25
2022-11-17T18:22:25.009Z,1.92
2022-11-17T18:23:56.352Z,2.01
2022-11-17T18:25:27.702Z,1.90
2022-11-17T18:26:59.301Z,1.95
2022-11-17T18:28:30.698Z,2.16
2022-11-17T18:30:02.019Z,1.72
2022-11-17T18:31:33.504Z,1.86
2022-11-17T18:33:04.870Z,2.67
2022-11-17T18:34:36.243Z,3.56
2022-11-17T18:36:09.181Z,2.66
2022-11-17T18:37:40.561Z,2.34
2022-11-17T18:39:12.003Z,2.65
2022-11-17T18:40:43.387Z,2.40
2022-11-17T18:42:14.791Z,2.78
2022-11-17T18:43:46.193Z,2.21
2022-11-17T18:45:17.524Z,1.94
2022-11-17T18:46:49.348Z,2.13
2022-11-17T18:48:21.233Z,2.02
2022-11-17T18:49:52.868Z,2.12
2022-11-17T18:51:24.664Z,2.11
2022-11-17T18:52:56.418Z,2.47
2022-11-17T18:54:27.799Z,2.51
2022-11-17T18:55:59.194Z,3.92
2022-11-17T18:57:38.571Z,4.13
2022-11-17T18:59:13.632Z,3.02
2022-11-17T19:00:45.112Z,2.43
2022-11-17T19:02:16.528Z,1.89
2022-11-17T19:03:47.883Z,1.89
2022-11-17T19:05:19.195Z,2.05
2022-11-17T19:06:50.615Z,1.83
2022-11-17T19:08:21.945Z,1.83
2022-11-17T19:09:58.276Z,1.99
2022-11-17T19:11:29.615Z,1.86
2022-11-17T19:13:01.238Z,2.16
2022-11-17T19:14:32.864Z,2.02
2022-11-17T19:16:04.269Z,2.18
2022-11-17T19:18:07.416Z,2.15
2022-11-17T19:19:38.773Z,2.11
2022-11-17T19:21:10.561Z,2.12
2022-11-17T19:22:58.246Z,2.30
2022-11-17T19:24:30.612Z,2.26
2022-11-17T19:26:02.111Z,2.25
2022-11-17T19:27:34.024Z,2.17
2022-11-17T19:29:08.767Z,2.18
2022-11-17T19:30:43.168Z,2.38
2022-11-17T19:32:14.483Z,1.98
2022-11-17T19:33:46.394Z,1.83
2022-11-17T19:35:22.427Z,2.06
2022-11-17T19:36:54.454Z,2.10
2022-11-17T19:38:25.794Z,2.80
2022-11-17T19:39:57.238Z,2.86
2022-11-17T19:41:28.584Z,3.62
2022-11-17T19:42:59.918Z,1.91
2022-11-17T19:44:36.524Z,2.05
2022-11-17T19:46:18.301Z,2.36
2022-11-17T19:47:50.504Z,2.38
2022-11-17T19:49:22.100Z,2.15
2022-11-17T19:50:56.041Z,2.05
2022-11-17T19:52:32.921Z,2.19
2022-11-17T19:54:19.692Z,2.21
2022-11-17T19:56:08.041Z,2.16
2022-11-17T19:57:39.374Z,2.18
2022-11-17T19:59:16.731Z,2.00
2022-11-17T20:00:49.632Z,1.97
2022-11-17T20:02:32.169Z,2.01
2022-11-17T20:04:03.470Z,1.94
2022-11-17T20:05:34.934Z,2.13
2022-11-17T20:07:06.472Z,2.08
2022-11-17T20:08:37.880Z,1.95
2022-11-17T20:10:14.235Z,2.11
2022-11-17T20:11:55.715Z,1.90
2022-11-17T20:13:52.441Z,2.16
2022-11-17T20:15:33.942Z,1.96
2022-11-17T20:17:16.470Z,2.10
2022-11-17T20:18:53.007Z,2.06
2022-11-17T20:20:34.486Z,1.97
2022-11-17T20:22:15.807Z,2.12
2022-11-17T20:23:47.138Z,2.06
2022-11-17T20:25:19.265Z,2.09
2022-11-17T20:26:56.141Z,2.25
2022-11-17T20:28:27.794Z,2.12
2022-11-17T20:29:59.798Z,2.08
2022-11-17T20:31:31.395Z,2.12
2022-11-17T20:33:08.049Z,2.18
2022-11-17T20:34:39.642Z,2.06